Time;durP1;ratioP1;P1;durP2;ratioP2;P2;SDS_P1;SDS_P2;PMS_P1;PMS_P2;Temp;Humidity;BMP_temperature;BMP_pressure;BME280_temperature;BME280_humidity;BME280_pressure;Samples;Min_cycle;Max_cycle;Signal;HPM_P1;HPM_P2
2023/03/15 00:00:09;;;;;;;20.27;7.55;;;12.20;96.70;;;;;;5063317;28;20040;-73
2023/03/15 00:02:37;;;;;;;21.27;7.82;;;11.90;96.70;;;;;;5065646;28;20496;-73
2023/03/15 00:05:05;;;;;;;18.70;7.65;;;11.80;96.70;;;;;;5060736;28;20033;-73
2023/03/15 00:07:33;;;;;;;22.23;7.57;;;11.70;96.70;;;;;;5061446;28;20519;-73
2023/03/15 00:10:01;;;;;;;18.02;6.80;;;11.60;96.70;;;;;;5076521;28;20139;-72
2023/03/15 00:12:31;;;;;;;19.15;7.35;;;11.60;96.70;;;;;;5062697;28;20040;-73
2023/03/15 00:14:58;;;;;;;17.65;7.80;;;11.70;96.70;;;;;;5065051;28;20048;-73
2023/03/15 00:17:26;;;;;;;16.73;7.13;;;11.80;96.70;;;;;;5079063;28;20131;-72
2023/03/15 00:19:54;;;;;;;18.92;7.38;;;11.90;96.70;;;;;;5063464;28;20040;-73
2023/03/15 00:22:22;;;;;;;23.58;8.05;;;11.90;96.70;;;;;;5079834;28;20129;-73
2023/03/15 00:24:50;;;;;;;16.05;7.28;;;11.90;96.70;;;;;;5060747;28;20870;-72
2023/03/15 00:27:18;;;;;;;15.35;5.88;;;11.90;96.70;;;;;;5064457;28;20040;-73
2023/03/15 00:29:47;;;;;;;17.17;6.32;;;11.80;96.70;;;;;;5058179;28;20039;-73
2023/03/15 00:32:15;;;;;;;17.17;6.00;;;11.90;96.70;;;;;;5080008;28;20044;-73
2023/03/15 00:34:47;;;;;;;18.20;5.65;;;11.90;96.70;;;;;;5061994;28;20118;-73
2023/03/15 00:37:16;;;;;;;14.80;5.20;;;11.80;96.70;;;;;;5060207;28;20036;-73
2023/03/15 00:39:45;;;;;;;18.30;5.57;;;11.70;96.70;;;;;;5078213;28;20504;-73
2023/03/15 00:42:16;;;;;;;21.35;5.90;;;11.70;96.70;;;;;;5069062;28;20565;-73
2023/03/15 00:44:46;;;;;;;15.25;4.70;;;11.70;96.70;;;;;;5073287;28;20040;-72
2023/03/15 00:47:14;;;;;;;14.70;4.65;;;11.60;96.70;;;;;;5076221;28;20036;-73
2023/03/15 00:49:42;;;;;;;16.42;5.55;;;11.50;96.70;;;;;;5064494;28;20051;-73
2023/03/15 00:52:11;;;;;;;14.40;4.80;;;11.40;96.70;;;;;;5047069;28;20095;-72
2023/03/15 00:54:40;;;;;;;15.48;5.10;;;11.40;96.70;;;;;;5074978;28;20407;-73
2023/03/15 00:57:10;;;;;;;16.70;5.75;;;11.50;96.70;;;;;;5078967;28;20043;-73
2023/03/15 00:59:38;;;;;;;17.42;6.13;;;11.60;96.70;;;;;;5056456;28;20049;-73
2023/03/15 01:02:08;;;;;;;20.73;6.40;;;11.60;96.70;;;;;;5060003;28;20051;-73
2023/03/15 01:04:36;;;;;;;14.05;5.88;;;11.70;96.70;;;;;;5075035;28;20109;-73
2023/03/15 01:07:04;;;;;;;18.10;6.65;;;11.60;96.70;;;;;;5058627;28;20032;-73
2023/03/15 01:09:32;;;;;;;15.82;5.32;;;11.50;96.70;;;;;;5045506;28;20068;-73
2023/03/15 01:12:00;;;;;;;14.85;5.97;;;11.50;96.70;;;;;;5070370;28;20040;-73
2023/03/15 01:14:30;;;;;;;16.13;5.80;;;11.50;96.70;;;;;;5064166;28;20466;-73
2023/03/15 01:16:58;;;;;;;15.27;5.40;;;11.40;96.70;;;;;;5045921;28;20051;-74
2023/03/15 01:19:29;;;;;;;17.55;6.13;;;11.50;96.70;;;;;;5063714;28;20079;-73
2023/03/15 01:21:57;;;;;;;18.15;6.22;;;11.60;96.70;;;;;;5076157;28;20409;-73
2023/03/15 01:24:24;;;;;;;15.82;5.57;;;11.40;96.70;;;;;;5059706;28;20048;-73
2023/03/15 01:26:52;;;;;;;14.73;6.18;;;11.00;96.70;;;;;;5056796;28;20074;-73
2023/03/15 01:29:20;;;;;;;13.32;5.07;;;10.80;96.70;;;;;;5058133;28;20036;-73
2023/03/15 01:31:48;;;;;;;14.43;5.10;;;10.80;96.70;;;;;;5048204;28;20055;-73
2023/03/15 01:34:16;;;;;;;18.08;5.47;;;10.90;96.70;;;;;;5062411;28;20035;-73
2023/03/15 01:36:49;;;;;;;13.75;5.35;;;11.00;96.70;;;;;;5061146;28;20589;-72
2023/03/15 01:39:17;;;;;;;11.10;5.03;;;11.20;96.70;;;;;;5048968;28;20048;-73
2023/03/15 01:41:46;;;;;;;13.15;5.30;;;11.20;96.70;;;;;;5055256;28;20434;-73
2023/03/15 01:44:14;;;;;;;14.10;6.65;;;11.30;96.70;;;;;;5071709;28;20494;-73
2023/03/15 01:46:42;;;;;;;14.75;5.20;;;11.30;96.70;;;;;;5059626;28;20063;-73
2023/03/15 01:49:25;;;;;;;14.60;4.88;;;11.20;96.70;;;;;;5050902;28;20040;-73
2023/03/15 01:52:00;;;;;;;15.25;5.93;;;11.30;96.70;;;;;;5073947;28;20582;-73
2023/03/15 01:54:41;;;;;;;14.75;5.55;;;11.30;96.70;;;;;;5057421;28;20131;-72
2023/03/15 01:57:11;;;;;;;12.32;4.25;;;11.30;96.70;;;;;;5044535;28;20081;-73
2023/03/15 01:59:44;;;;;;;12.30;4.47;;;11.20;96.70;;;;;;5062525;28;20485;-73
2023/03/15 02:02:15;;;;;;;14.32;5.47;;;11.20;96.70;;;;;;5073353;28;20052;-72
2023/03/15 02:04:48;;;;;;;13.80;5.15;;;11.20;96.70;;;;;;5042970;28;20052;-73
2023/03/15 02:07:23;;;;;;;13.82;5.22;;;11.10;96.70;;;;;;5037937;28;20044;-72
2023/03/15 02:09:57;;;;;;;14.32;5.70;;;11.00;96.70;;;;;;5055469;28;20044;-73
2023/03/15 02:12:30;;;;;;;15.48;6.20;;;10.90;96.70;;;;;;5062121;28;20048;-72
2023/03/15 02:15:01;;;;;;;11.90;5.13;;;10.80;96.70;;;;;;5072616;28;20036;-72
2023/03/15 02:17:35;;;;;;;16.67;5.22;;;10.90;96.70;;;;;;5055799;28;20052;-72
2023/03/15 02:20:15;;;;;;;15.52;4.57;;;11.00;96.70;;;;;;5058062;28;20048;-72
2023/03/15 02:22:50;;;;;;;15.00;4.68;;;11.10;96.70;;;;;;5056975;28;20053;-72
2023/03/15 02:25:28;;;;;;;13.25;4.43;;;11.10;96.70;;;;;;5065856;28;20047;-72
2023/03/15 02:27:58;;;;;;;11.05;2.97;;;11.00;96.70;;;;;;5059765;28;20458;-73
2023/03/15 02:30:26;;;;;;;12.70;3.83;;;11.00;96.70;;;;;;5060377;28;20086;-72
2023/03/15 02:32:56;;;;;;;16.58;4.97;;;11.00;96.70;;;;;;5073871;28;20028;-73
2023/03/15 02:35:27;;;;;;;15.50;3.75;;;10.80;96.70;;;;;;5063514;28;20117;-72
2023/03/15 02:37:55;;;;;;;15.05;3.90;;;10.90;96.70;;;;;;5059939;28;20044;-72
2023/03/15 02:40:28;;;;;;;14.20;3.53;;;10.90;96.70;;;;;;5077794;28;20125;-73
2023/03/15 02:43:02;;;;;;;13.40;3.47;;;10.80;96.70;;;;;;5076538;28;20036;-73
2023/03/15 02:45:32;;;;;;;12.30;3.80;;;10.80;96.70;;;;;;5061481;28;20734;-73
2023/03/15 02:48:03;;;;;;;13.68;3.30;;;10.80;96.70;;;;;;5061578;28;20205;-72
2023/03/15 02:50:31;;;;;;;13.73;3.67;;;10.70;96.70;;;;;;5059832;28;20113;-72
2023/03/15 02:53:01;;;;;;;10.50;3.63;;;10.80;96.70;;;;;;5040461;28;20048;-73
2023/03/15 02:55:34;;;;;;;12.43;3.88;;;10.70;96.70;;;;;;5062196;28;20040;-73
2023/03/15 02:58:04;;;;;;;13.20;3.30;;;10.70;96.70;;;;;;5076273;28;20602;-72
2023/03/15 03:00:32;;;;;;;13.65;4.57;;;10.70;96.70;;;;;;5063402;28;20037;-72
2023/03/15 03:03:00;;;;;;;12.30;3.25;;;10.50;96.70;;;;;;5062011;28;20164;-73
2023/03/15 03:05:28;;;;;;;13.68;4.13;;;10.20;96.70;;;;;;5059367;28;20387;-73
2023/03/15 03:07:57;;;;;;;14.13;4.45;;;10.30;96.70;;;;;;5080315;28;20043;-73
2023/03/15 03:10:26;;;;;;;13.95;4.30;;;10.40;96.70;;;;;;5064467;28;20050;-73
2023/03/15 03:12:57;;;;;;;11.68;3.85;;;10.50;96.70;;;;;;5069846;28;20152;-73
2023/03/15 03:15:34;;;;;;;15.63;4.18;;;10.60;96.70;;;;;;5079863;28;20526;-72
2023/03/15 03:18:02;;;;;;;16.33;4.05;;;10.60;96.70;;;;;;5064967;28;20501;-73
2023/03/15 03:20:32;;;;;;;13.70;4.25;;;10.60;96.70;;;;;;5051459;28;20151;-73
2023/03/15 03:23:04;;;;;;;14.48;3.60;;;10.60;96.70;;;;;;5066869;28;20056;-73
2023/03/15 03:25:35;;;;;;;12.82;3.30;;;10.60;96.70;;;;;;5081361;28;20043;-73
2023/03/15 03:28:03;;;;;;;13.02;3.53;;;10.60;96.70;;;;;;5073174;28;20049;-73
2023/03/15 03:30:35;;;;;;;11.27;3.72;;;10.50;96.70;;;;;;5079737;28;20040;-72
2023/03/15 03:33:04;;;;;;;14.75;3.97;;;10.50;96.70;;;;;;5079801;28;20705;-72
2023/03/15 03:35:32;;;;;;;14.82;3.28;;;10.50;96.70;;;;;;5064189;28;20127;-73
2023/03/15 03:38:01;;;;;;;11.07;3.17;;;10.50;96.70;;;;;;5062479;28;20437;-72
2023/03/15 03:40:35;;;;;;;9.18;3.40;;;10.50;96.70;;;;;;5067405;28;20063;-73
2023/03/15 03:43:05;;;;;;;14.52;3.95;;;10.50;96.70;;;;;;5064838;28;20800;-73
2023/03/15 03:45:35;;;;;;;13.00;3.20;;;10.40;96.70;;;;;;5063995;28;20726;-73
2023/03/15 03:48:05;;;;;;;9.88;3.20;;;10.30;96.70;;;;;;5061935;28;20057;-72
2023/03/15 03:50:34;;;;;;;12.23;3.38;;;10.30;96.70;;;;;;5065218;28;20090;-73
2023/03/15 03:53:03;;;;;;;10.23;3.40;;;10.40;96.70;;;;;;5061328;28;20048;-72
2023/03/15 03:55:34;;;;;;;15.27;3.30;;;10.30;96.70;;;;;;5064816;28;20044;-72
2023/03/15 03:58:02;;;;;;;11.20;3.22;;;10.30;96.70;;;;;;5080929;28;20051;-74
2023/03/15 04:00:46;;;;;;;16.73;4.57;;;10.50;96.70;;;;;;5068422;28;20054;-72
2023/03/15 04:03:15;;;;;;;13.07;3.97;;;10.40;96.70;;;;;;5059970;28;20059;-73
2023/03/15 04:05:47;;;;;;;12.50;4.53;;;10.40;96.70;;;;;;5063923;28;20592;-72
2023/03/15 04:08:19;;;;;;;18.02;5.00;;;10.50;96.70;;;;;;5060073;28;20054;-72
2023/03/15 04:10:52;;;;;;;19.05;6.18;;;10.50;96.70;;;;;;5065020;28;20051;-73
2023/03/15 04:13:22;;;;;;;16.63;5.57;;;10.50;96.70;;;;;;5061866;28;20502;-73
2023/03/15 04:15:56;;;;;;;25.92;5.40;;;10.50;96.70;;;;;;5049191;28;20048;-72
2023/03/15 04:18:29;;;;;;;10.32;5.13;;;10.50;96.70;;;;;;5060713;28;20062;-72
2023/03/15 04:20:59;;;;;;;10.52;4.95;;;10.50;96.70;;;;;;5062541;28;20044;-73
2023/03/15 04:23:28;;;;;;;8.80;4.75;;;10.50;96.70;;;;;;5060387;28;20435;-72
2023/03/15 04:26:25;;;;;;;7.88;4.40;;;10.40;96.70;;;;;;5080365;28;20036;-73
2023/03/15 04:29:16;;;;;;;8.57;3.88;;;10.40;96.70;;;;;;5067706;28;20098;-74
2023/03/15 04:32:11;;;;;;;22.75;4.55;;;10.50;96.70;;;;;;5059132;28;20044;-72
2023/03/15 04:35:05;;;;;;;19.70;4.22;;;10.50;96.70;;;;;;5003857;28;20070;-73
2023/03/15 04:37:54;;;;;;;14.25;4.55;;;10.50;96.70;;;;;;5010880;28;20141;-72
2023/03/15 04:40:48;;;;;;;20.63;4.80;;;10.50;96.70;;;;;;4985091;28;20151;-71
2023/03/15 04:43:40;;;;;;;17.00;4.30;;;10.50;96.70;;;;;;5007065;28;20049;-72
2023/03/15 04:46:23;;;;;;;24.13;4.43;;;10.50;96.70;;;;;;5002568;28;20096;-72
2023/03/15 04:49:23;;;;;;;23.92;4.32;;;10.40;96.70;;;;;;4965370;28;20054;-72
2023/03/15 04:52:17;;;;;;;17.48;4.55;;;10.10;96.70;;;;;;4976931;28;20056;-72
2023/03/15 04:55:05;;;;;;;13.55;3.60;;;10.10;96.70;;;;;;5014853;28;20053;-72
2023/03/15 04:57:54;;;;;;;10.82;3.25;;;10.10;96.70;;;;;;5002020;28;20702;-72
2023/03/15 05:00:41;;;;;;;11.07;3.72;;;10.10;96.70;;;;;;5008909;28;20115;-72
2023/03/15 05:03:30;;;;;;;15.45;4.10;;;9.90;96.70;;;;;;4998109;28;20073;-74
2023/03/15 05:06:18;;;;;;;13.00;3.83;;;10.00;96.70;;;;;;5009080;28;20052;-73
2023/03/15 05:09:17;;;;;;;12.43;4.47;;;10.10;96.70;;;;;;4994732;28;21694;-73
2023/03/15 05:12:01;;;;;;;9.32;3.40;;;10.10;96.70;;;;;;5015355;28;20059;-73
2023/03/15 05:14:58;;;;;;;;;;;10.10;96.70;;;;;;5008834;28;20127;-74
2023/03/15 05:17:53;;;;;;;6.65;3.75;;;10.00;96.70;;;;;;5061266;28;20289;-73
2023/03/15 05:20:57;;;;;;;12.68;3.67;;;10.00;96.70;;;;;;5058673;28;20222;-72
2023/03/15 05:23:37;;;;;;;14.63;4.35;;;10.10;96.70;;;;;;5056235;28;20413;-73
2023/03/15 05:26:35;;;;;;;14.63;4.20;;;10.10;96.70;;;;;;4998471;28;20052;-73
2023/03/15 05:29:11;;;;;;;17.40;5.07;;;9.90;96.70;;;;;;5055526;28;20072;-73
2023/03/15 05:32:05;;;;;;;16.58;4.55;;;9.80;96.70;;;;;;5033288;28;20040;-73
2023/03/15 05:35:06;;;;;;;11.35;3.70;;;9.90;96.70;;;;;;5033122;28;20056;-73
2023/03/15 05:37:43;;;;;;;9.60;4.10;;;10.00;96.70;;;;;;5054250;28;20040;-73
2023/03/15 05:40:35;;;;;;;9.38;3.03;;;9.90;96.70;;;;;;5055895;28;20417;-73
2023/03/15 05:43:26;;;;;;;21.27;4.00;;;9.80;96.70;;;;;;5030988;28;20048;-72
2023/03/15 05:46:13;;;;;;;13.10;4.00;;;9.20;96.70;;;;;;5057668;28;20724;-73
2023/03/15 05:49:14;;;;;;;19.15;4.25;;;9.00;96.70;;;;;;5045525;28;20055;-73
2023/03/15 05:52:09;;;;;;;14.65;4.38;;;9.30;96.70;;;;;;5024301;28;20095;-71
2023/03/15 05:55:08;;;;;;;14.52;4.40;;;9.50;96.70;;;;;;5055196;28;20040;-73
2023/03/15 05:57:57;;;;;;;18.73;4.45;;;9.40;96.70;;;;;;5058327;28;20059;-72
2023/03/15 06:01:02;;;;;;;15.95;5.10;;;9.60;96.70;;;;;;5011935;28;20050;-72
2023/03/15 06:03:56;;;;;;;16.73;5.07;;;9.80;96.70;;;;;;5053304;28;20057;-73
2023/03/15 06:06:29;;;;;;;20.38;5.28;;;9.90;96.70;;;;;;5057844;28;20040;-73
2023/03/15 06:09:02;;;;;;;12.18;4.22;;;10.00;96.70;;;;;;5055367;28;20041;-73
2023/03/15 06:11:31;;;;;;;17.38;4.93;;;10.00;96.70;;;;;;5054364;28;20089;-72
2023/03/15 06:14:02;;;;;;;12.02;5.40;;;10.00;96.70;;;;;;5044203;28;20045;-73
2023/03/15 06:16:41;;;;;;;22.50;5.35;;;10.10;96.70;;;;;;5055078;28;20045;-73
2023/03/15 06:19:09;;;;;;;12.32;4.55;;;9.90;96.70;;;;;;5057945;28;20393;-73
2023/03/15 06:21:38;;;;;;;12.95;4.85;;;9.80;96.70;;;;;;5053404;28;20438;-74
2023/03/15 06:24:11;;;;;;;20.05;5.90;;;9.90;96.70;;;;;;5054988;28;20080;-73
2023/03/15 06:26:39;;;;;;;19.63;5.55;;;9.70;96.70;;;;;;5057285;28;20036;-74
2023/03/15 06:29:09;;;;;;;13.48;4.88;;;9.70;96.70;;;;;;5043987;28;20083;-73
2023/03/15 06:31:37;;;;;;;14.88;5.93;;;9.90;96.70;;;;;;5040456;28;20040;-74
2023/03/15 06:34:08;;;;;;;16.60;5.93;;;10.10;96.70;;;;;;5046871;28;20043;-74
2023/03/15 06:36:36;;;;;;;22.80;6.03;;;10.20;96.70;;;;;;5070632;28;20043;-75
2023/03/15 06:39:04;;;;;;;18.77;4.97;;;10.30;96.70;;;;;;5043775;28;20044;-74
2023/03/15 06:41:33;;;;;;;17.85;5.57;;;10.40;96.70;;;;;;5065417;28;20127;-75
2023/03/15 06:44:09;;;;;;;16.27;5.55;;;10.50;96.70;;;;;;5050621;28;20048;-74
2023/03/15 06:46:38;;;;;;;17.40;5.05;;;10.60;96.70;;;;;;5063985;28;20056;-74
2023/03/15 06:49:06;;;;;;;29.50;5.72;;;10.70;96.70;;;;;;5041205;28;20045;-74
2023/03/15 06:51:48;;;;;;;21.15;5.90;;;10.70;96.70;;;;;;5059094;28;20136;-74
2023/03/15 06:54:16;;;;;;;24.02;5.45;;;10.70;96.70;;;;;;5069703;28;20066;-74
2023/03/15 06:56:43;;;;;;;13.55;6.07;;;10.70;96.70;;;;;;5066657;28;20047;-74
2023/03/15 06:59:13;;;;;;;22.92;5.97;;;10.70;96.70;;;;;;5073329;28;20105;-73
2023/03/15 07:01:41;;;;;;;51.95;6.05;;;10.80;96.70;;;;;;5059309;28;20032;-74
2023/03/15 07:04:09;;;;;;;9.85;5.47;;;10.80;96.70;;;;;;5047947;28;20413;-74
2023/03/15 07:06:37;;;;;;;14.15;5.53;;;10.70;96.70;;;;;;5047583;28;20562;-73
2023/03/15 07:09:05;;;;;;;27.35;6.30;;;10.80;96.70;;;;;;5065406;28;20079;-73
2023/03/15 07:11:33;;;;;;;17.98;5.97;;;11.00;96.70;;;;;;5058935;28;20075;-72
2023/03/15 07:14:02;;;;;;;25.83;6.20;;;11.00;96.70;;;;;;5062754;28;20056;-72
2023/03/15 07:16:31;;;;;;;19.52;6.18;;;11.10;96.70;;;;;;5077498;28;20055;-73
2023/03/15 07:19:00;;;;;;;18.05;5.55;;;11.10;96.70;;;;;;5069459;28;20052;-73
2023/03/15 07:21:28;;;;;;;13.00;5.90;;;11.20;96.70;;;;;;5061883;28;20502;-72
2023/03/15 07:23:56;;;;;;;13.40;6.53;;;11.20;96.70;;;;;;5082101;28;20064;-72
2023/03/15 07:26:24;;;;;;;19.90;6.30;;;11.30;96.70;;;;;;5093604;28;20052;-75
2023/03/15 07:28:52;;;;;;;16.63;6.47;;;11.30;96.70;;;;;;5078411;28;20050;-73
2023/03/15 07:31:21;;;;;;;24.65;7.28;;;11.30;96.70;;;;;;5091794;28;20123;-72
2023/03/15 07:33:50;;;;;;;15.43;6.32;;;11.30;96.70;;;;;;5085626;28;20033;-74
2023/03/15 07:36:18;;;;;;;18.60;7.15;;;11.40;96.70;;;;;;5100766;28;20035;-73
2023/03/15 07:38:45;;;;;;;20.17;7.40;;;11.50;96.70;;;;;;5068246;28;20043;-74
2023/03/15 07:41:13;;;;;;;19.48;7.35;;;11.60;96.70;;;;;;5061339;28;20044;-72
2023/03/15 07:44:06;;;;;;;22.75;7.63;;;11.60;96.70;;;;;;5072599;28;20059;-74
2023/03/15 07:46:34;;;;;;;19.65;7.47;;;11.60;96.70;;;;;;5046254;28;20101;-74
2023/03/15 07:49:03;;;;;;;17.70;7.07;;;11.60;96.70;;;;;;5098726;28;20036;-73
2023/03/15 07:51:32;;;;;;;17.95;6.57;;;11.60;96.70;;;;;;5095387;28;20048;-72
2023/03/15 07:54:00;;;;;;;20.25;6.43;;;11.70;96.70;;;;;;5073090;28;20413;-73
2023/03/15 07:56:28;;;;;;;15.38;7.40;;;11.70;96.70;;;;;;5067262;28;20097;-74
2023/03/15 07:58:55;;;;;;;12.13;7.00;;;11.60;96.70;;;;;;5055208;28;20520;-75
2023/03/15 08:01:23;;;;;;;13.07;7.32;;;11.70;96.70;;;;;;5082702;28;20584;-73
2023/03/15 08:03:51;;;;;;;17.67;7.53;;;11.70;96.70;;;;;;5092760;28;20044;-73
2023/03/15 08:06:20;;;;;;;16.63;7.25;;;11.80;96.70;;;;;;5084879;28;20581;-73
2023/03/15 08:08:48;;;;;;;19.80;7.20;;;11.80;96.70;;;;;;5085379;28;20044;-73
2023/03/15 08:11:16;;;;;;;15.52;6.25;;;11.90;96.70;;;;;;5093810;28;20044;-73
2023/03/15 08:13:44;;;;;;;16.95;7.72;;;11.90;96.70;;;;;;5065649;28;20044;-73
2023/03/15 08:16:12;;;;;;;13.15;6.80;;;11.90;96.70;;;;;;5097270;28;20042;-73
2023/03/15 08:18:40;;;;;;;20.65;7.03;;;12.00;96.70;;;;;;5058585;28;20058;-73
2023/03/15 08:21:08;;;;;;;12.20;6.18;;;12.00;96.70;;;;;;5063684;28;20039;-74
2023/03/15 08:23:37;;;;;;;17.52;6.78;;;12.00;96.70;;;;;;5071634;28;20078;-73
2023/03/15 08:26:05;;;;;;;10.93;6.90;;;12.00;96.70;;;;;;5065372;28;20062;-73
2023/03/15 08:28:33;;;;;;;15.27;7.13;;;12.00;96.70;;;;;;5065593;28;20612;-73
2023/03/15 08:31:06;;;;;;;14.70;7.50;;;12.00;96.70;;;;;;5045322;28;20052;-73
2023/03/15 08:33:34;;;;;;;12.05;7.18;;;12.00;96.70;;;;;;5060456;28;20155;-73
2023/03/15 08:36:02;;;;;;;10.32;7.32;;;11.90;96.70;;;;;;5102274;28;20058;-74
2023/03/15 08:38:30;;;;;;;10.10;7.07;;;11.90;96.70;;;;;;5097108;28;20489;-73
2023/03/15 08:40:59;;;;;;;12.02;7.70;;;12.00;96.70;;;;;;5068465;28;20166;-73
2023/03/15 08:43:27;;;;;;;10.85;7.55;;;12.20;96.70;;;;;;5064682;28;20607;-72
2023/03/15 08:45:55;;;;;;;9.90;7.13;;;12.20;96.70;;;;;;5066205;28;20044;-72
2023/03/15 08:48:28;;;;;;;9.32;6.90;;;12.20;96.70;;;;;;5071846;28;20255;-73
2023/03/15 08:51:01;;;;;;;11.10;7.55;;;12.30;96.70;;;;;;5097760;28;20039;-73
2023/03/15 08:53:30;;;;;;;12.63;7.95;;;12.20;96.70;;;;;;5064607;28;20406;-73
2023/03/15 08:55:59;;;;;;;10.23;7.25;;;12.50;96.70;;;;;;5059040;28;20042;-73
2023/03/15 08:58:27;;;;;;;14.82;8.65;;;12.80;96.70;;;;;;5049071;28;20048;-73
2023/03/15 09:00:56;;;;;;;13.90;9.20;;;12.90;96.70;;;;;;5087067;28;20071;-74
2023/03/15 09:03:24;;;;;;;15.02;9.43;;;12.90;96.70;;;;;;5089379;28;20096;-73
2023/03/15 09:05:56;;;;;;;16.63;8.93;;;13.10;96.70;;;;;;5067806;28;20528;-73
2023/03/15 09:08:25;;;;;;;14.18;9.52;;;13.10;96.70;;;;;;5065188;28;20134;-73
2023/03/15 09:10:57;;;;;;;14.05;9.00;;;13.20;96.70;;;;;;5057303;28;20538;-72
2023/03/15 09:13:27;;;;;;;14.63;10.23;;;13.10;96.70;;;;;;5087383;28;20044;-73
2023/03/15 09:15:55;;;;;;;14.52;9.85;;;13.00;96.70;;;;;;5087966;28;20097;-73
2023/03/15 09:18:55;;;;;;;14.55;9.63;;;12.90;96.70;;;;;;5064679;28;20110;-73
2023/03/15 09:21:24;;;;;;;13.90;9.07;;;12.90;96.70;;;;;;5058205;28;20828;-73
2023/03/15 09:23:51;;;;;;;12.77;9.23;;;13.00;96.70;;;;;;5093951;28;20455;-73
2023/03/15 09:26:19;;;;;;;12.13;9.32;;;12.90;96.70;;;;;;5070324;28;20054;-73
2023/03/15 09:28:49;;;;;;;13.27;9.70;;;12.90;96.70;;;;;;5081864;28;20036;-73
2023/03/15 09:31:17;;;;;;;15.95;10.13;;;13.00;96.70;;;;;;5081622;28;20051;-73
2023/03/15 09:33:45;;;;;;;14.00;9.55;;;13.00;96.70;;;;;;5064450;28;20105;-73
2023/03/15 09:36:13;;;;;;;11.65;8.93;;;13.00;96.70;;;;;;5102929;28;20138;-73
2023/03/15 09:38:42;;;;;;;13.60;9.00;;;13.00;96.70;;;;;;5087011;28;20161;-73
2023/03/15 09:41:19;;;;;;;14.43;9.25;;;12.90;96.70;;;;;;5090801;28;20048;-73
2023/03/15 09:44:11;;;;;;;14.10;9.02;;;13.10;96.70;;;;;;5057958;28;20079;-73
2023/03/15 09:46:47;;;;;;;13.63;9.15;;;13.30;96.70;;;;;;5100901;28;20079;-73
2023/03/15 09:49:25;;;;;;;14.80;9.88;;;13.50;96.70;;;;;;5064735;28;20048;-72
2023/03/15 09:51:57;;;;;;;16.65;9.73;;;13.50;96.70;;;;;;5087319;28;20120;-72
2023/03/15 09:54:31;;;;;;;13.93;9.30;;;13.70;96.70;;;;;;5068098;28;20048;-73
2023/03/15 09:57:01;;;;;;;17.00;10.52;;;13.80;96.70;;;;;;5064132;28;20044;-72
2023/03/15 09:59:33;;;;;;;14.02;9.68;;;13.90;96.70;;;;;;5090920;28;20040;-73
2023/03/15 10:02:13;;;;;;;18.38;10.02;;;14.00;96.70;;;;;;5066783;28;20052;-73
2023/03/15 10:04:43;;;;;;;16.38;11.15;;;14.20;96.70;;;;;;5101405;28;20416;-73
2023/03/15 10:07:14;;;;;;;21.23;11.95;;;14.40;96.70;;;;;;5084783;28;20054;-73
2023/03/15 10:09:42;;;;;;;15.77;10.57;;;14.30;96.70;;;;;;5078384;28;20050;-72
2023/03/15 10:12:13;;;;;;;20.75;11.77;;;14.50;96.70;;;;;;5095835;28;20099;-72
2023/03/15 10:15:16;;;;;;;17.52;10.90;;;14.60;96.70;;;;;;5066189;28;20412;-73
2023/03/15 10:17:56;;;;;;;16.17;10.75;;;14.80;96.70;;;;;;5068389;28;20040;-72
2023/03/15 10:20:26;;;;;;;18.45;11.05;;;14.90;96.70;;;;;;5069199;28;20052;-73
2023/03/15 10:22:59;;;;;;;15.25;10.20;;;15.10;96.70;;;;;;5053694;28;20409;-73
2023/03/15 10:25:29;;;;;;;15.57;9.73;;;15.20;96.70;;;;;;5064932;28;20041;-74
2023/03/15 10:28:01;;;;;;;15.75;9.52;;;15.30;96.70;;;;;;5072255;28;20569;-72
2023/03/15 10:30:32;;;;;;;12.55;8.63;;;15.40;96.70;;;;;;5054201;28;20067;-73
2023/03/15 10:33:04;;;;;;;12.80;8.48;;;15.60;96.70;;;;;;5060117;28;20086;-72
2023/03/15 10:35:32;;;;;;;15.52;9.02;;;15.60;96.70;;;;;;5068573;28;20136;-73
2023/03/15 10:38:01;;;;;;;11.25;8.07;;;15.70;96.70;;;;;;5058075;28;20049;-72
2023/03/15 10:40:41;;;;;;;12.02;8.35;;;15.80;96.70;;;;;;5056104;28;20040;-73
2023/03/15 10:43:17;;;;;;;13.80;8.50;;;16.00;96.70;;;;;;5048526;28;20568;-73
2023/03/15 10:45:56;;;;;;;13.98;8.75;;;16.00;96.70;;;;;;5077798;28;20144;-73
2023/03/15 10:48:26;;;;;;;11.90;8.40;;;16.20;96.70;;;;;;5044317;28;20052;-72
2023/03/15 10:50:55;;;;;;;14.88;9.38;;;16.30;96.70;;;;;;5060213;28;20462;-73
2023/03/15 10:53:25;;;;;;;13.32;8.13;;;16.50;96.70;;;;;;5075400;28;20067;-73
2023/03/15 10:56:02;;;;;;;10.05;6.05;;;16.60;96.70;;;;;;5049922;28;20048;-72
2023/03/15 10:58:40;;;;;;;8.15;4.82;;;16.70;96.70;;;;;;5060612;28;20540;-73
2023/03/15 11:01:22;;;;;;;11.18;4.85;;;16.80;96.70;;;;;;5077009;28;20040;-72
2023/03/15 11:04:15;;;;;;;7.07;4.20;;;17.10;96.70;;;;;;5058269;28;20142;-73
2023/03/15 11:06:46;;;;;;;4.60;2.90;;;17.20;96.70;;;;;;5071105;28;20044;-73
2023/03/15 11:09:16;;;;;;;5.97;3.58;;;17.20;96.70;;;;;;5060029;28;20449;-73
2023/03/15 11:11:58;;;;;;;6.32;2.95;;;17.00;96.70;;;;;;5069357;28;20054;-73
2023/03/15 11:14:32;;;;;;;6.40;2.70;;;17.20;96.70;;;;;;5078473;28;20040;-73
2023/03/15 11:17:03;;;;;;;4.88;2.60;;;17.30;96.70;;;;;;5065779;28;20175;-73
2023/03/15 11:19:40;;;;;;;6.28;2.80;;;17.50;96.70;;;;;;5068344;28;20608;-73
2023/03/15 11:22:12;;;;;;;5.50;2.45;;;17.60;96.70;;;;;;5086191;28;20040;-73
2023/03/15 11:24:41;;;;;;;5.57;2.55;;;17.70;96.70;;;;;;5079281;28;20036;-73
2023/03/15 11:27:12;;;;;;;5.53;2.40;;;17.80;96.70;;;;;;5076483;28;20039;-74
2023/03/15 11:29:45;;;;;;;5.45;2.33;;;18.00;96.70;;;;;;5071107;28;20417;-73
2023/03/15 11:32:17;;;;;;;5.60;2.60;;;18.10;96.70;;;;;;5066686;28;20131;-74
2023/03/15 11:34:54;;;;;;;4.88;2.38;;;18.20;96.70;;;;;;5093140;28;20047;-73
2023/03/15 11:37:27;;;;;;;2.25;1.70;;;18.30;96.70;;;;;;5079078;28;20545;-74
2023/03/15 11:40:00;;;;;;;3.63;1.98;;;18.30;96.70;;;;;;5082802;28;20118;-73
2023/03/15 11:42:45;;;;;;;3.83;2.08;;;18.40;96.70;;;;;;5085686;28;20778;-73
2023/03/15 11:45:19;;;;;;;2.65;1.83;;;18.30;96.70;;;;;;5092628;28;20097;-73
2023/03/15 11:47:53;;;;;;;3.03;2.00;;;18.50;96.70;;;;;;5066557;28;20554;-74
2023/03/15 11:50:23;;;;;;;3.88;2.00;;;18.60;96.70;;;;;;5089490;28;20618;-73
2023/03/15 11:52:51;;;;;;;3.17;1.75;;;18.60;96.70;;;;;;5101123;28;20632;-73
2023/03/15 11:55:23;;;;;;;3.22;1.70;;;18.70;96.70;;;;;;5068967;28;20052;-72
2023/03/15 11:57:52;;;;;;;3.15;1.30;;;18.80;96.70;;;;;;5099421;28;20048;-73
2023/03/15 12:00:42;;;;;;;3.97;1.55;;;18.80;96.70;;;;;;5098375;28;20067;-73
2023/03/15 12:03:35;;;;;;;1.10;0.60;;;18.90;96.70;;;;;;5087307;28;20111;-73
2023/03/15 12:06:33;;;;;;;2.17;0.88;;;18.90;96.70;;;;;;5068296;28;20118;-73
2023/03/15 12:09:01;;;;;;;1.73;0.80;;;19.00;96.70;;;;;;5054874;28;20055;-72
2023/03/15 12:11:41;;;;;;;2.22;0.82;;;19.10;96.70;;;;;;5093490;28;20493;-72
2023/03/15 12:14:28;;;;;;;1.60;0.90;;;19.30;96.70;;;;;;5072985;28;20036;-72
2023/03/15 12:17:37;;;;;;;1.98;0.88;;;19.40;96.70;;;;;;5081677;28;20661;-72
2023/03/15 12:20:18;;;;;;;2.20;0.60;;;19.50;96.70;;;;;;5093289;28;20547;-72
2023/03/15 12:22:51;;;;;;;1.33;0.93;;;19.60;96.70;;;;;;5069519;28;20051;-72
2023/03/15 12:25:28;;;;;;;2.72;0.90;;;19.60;96.70;;;;;;5092747;28;20044;-73
2023/03/15 12:27:58;;;;;;;1.23;0.63;;;19.50;96.70;;;;;;5080173;28;20044;-73
2023/03/15 12:30:34;;;;;;;1.10;0.70;;;19.60;96.70;;;;;;5073359;28;21769;-73
2023/03/15 12:33:03;;;;;;;1.50;0.77;;;19.70;96.70;;;;;;5063206;28;20051;-73
2023/03/15 12:35:38;;;;;;;2.22;1.05;;;19.90;96.70;;;;;;5062637;28;20459;-73
2023/03/15 12:38:14;;;;;;;2.22;1.02;;;19.90;96.70;;;;;;5065608;28;20151;-74
2023/03/15 12:40:54;;;;;;;2.20;1.23;;;20.10;96.70;;;;;;5084854;28;20048;-74
2023/03/15 12:43:41;;;;;;;2.13;1.10;;;20.30;96.70;;;;;;5077138;28;20051;-73
2023/03/15 12:46:40;;;;;;;3.63;2.30;;;20.30;96.70;;;;;;5070225;28;20044;-74
2023/03/15 12:49:10;;;;;;;4.28;2.42;;;20.20;96.70;;;;;;5064170;28;20108;-75
2023/03/15 12:51:52;;;;;;;2.83;1.35;;;20.30;96.70;;;;;;5101526;28;20050;-74
2023/03/15 12:54:24;;;;;;;3.53;1.17;;;20.50;96.70;;;;;;5058170;28;20047;-73
2023/03/15 12:56:56;;;;;;;2.30;1.15;;;20.70;96.70;;;;;;5065136;28;20468;-73
2023/03/15 12:59:31;;;;;;;2.30;0.90;;;20.40;96.70;;;;;;5096475;28;20044;-74
2023/03/15 13:02:02;;;;;;;2.35;1.10;;;20.20;96.70;;;;;;5059417;28;20044;-72
2023/03/15 13:04:30;;;;;;;3.50;1.50;;;20.20;96.20;;;;;;5059249;28;20764;-73
2023/03/15 13:07:17;;;;;;;3.45;1.40;;;20.20;96.70;;;;;;5102158;28;20043;-73
2023/03/15 13:10:21;;;;;;;3.55;1.40;;;20.20;96.70;;;;;;5058560;28;20072;-73
2023/03/15 13:12:57;;;;;;;1.52;0.93;;;20.30;96.70;;;;;;5038729;28;20044;-75
2023/03/15 13:15:31;;;;;;;2.17;1.10;;;20.40;96.70;;;;;;5044014;28;20063;-74